createdAt,value
2023-01-25T00:01:51.696Z,13.17
2023-01-25T00:04:19.251Z,12.83
2023-01-25T00:06:45.729Z,12.50
2023-01-25T00:09:12.838Z,12.30
2023-01-25T00:11:40.509Z,12.17
2023-01-25T00:14:09.023Z,13.50
2023-01-25T00:16:35.887Z,13.10
2023-01-25T00:19:03.434Z,12.80
2023-01-25T00:21:31.398Z,12.13
2023-01-25T00:23:57.907Z,11.73
2023-01-25T00:26:24.355Z,12.37
2023-01-25T00:28:52.451Z,11.37
2023-01-25T00:31:27.037Z,12.17
2023-01-25T00:34:00.743Z,12.60
2023-01-25T00:36:33.290Z,12.50
2023-01-25T00:38:59.860Z,12.00
2023-01-25T00:41:26.415Z,11.87
2023-01-25T00:43:54.337Z,11.40
2023-01-25T00:46:20.817Z,11.60
2023-01-25T00:48:47.606Z,10.50
2023-01-25T00:51:14.965Z,11.70
2023-01-25T00:53:41.538Z,11.70
2023-01-25T00:56:08.075Z,12.43
2023-01-25T00:58:34.611Z,11.97
2023-01-25T01:01:01.801Z,11.40
2023-01-25T01:03:29.404Z,11.50
2023-01-25T01:06:04.582Z,12.53
2023-01-25T01:08:33.647Z,12.50
2023-01-25T01:11:00.571Z,11.13
2023-01-25T01:13:27.449Z,12.00
2023-01-25T01:15:53.939Z,12.23
2023-01-25T01:18:21.351Z,12.57
2023-01-25T01:20:51.312Z,13.13
2023-01-25T01:23:17.968Z,12.73
2023-01-25T01:25:44.654Z,12.63
2023-01-25T01:28:11.504Z,13.33
2023-01-25T01:30:38.919Z,14.10
2023-01-25T01:33:05.944Z,13.10
2023-01-25T01:35:33.220Z,12.67
2023-01-25T01:37:59.927Z,14.03
2023-01-25T01:40:26.459Z,14.17
2023-01-25T01:42:57.196Z,14.37
2023-01-25T01:45:58.041Z,14.17
2023-01-25T01:48:34.810Z,13.03
2023-01-25T01:51:10.773Z,14.20
2023-01-25T01:53:38.540Z,13.77
2023-01-25T01:56:10.462Z,13.50
2023-01-25T01:58:37.477Z,13.30
2023-01-25T02:01:04.356Z,13.77
2023-01-25T02:03:31.678Z,13.50
2023-01-25T02:06:04.214Z,13.00
2023-01-25T02:08:35.942Z,13.70
2023-01-25T02:11:03.979Z,12.00
2023-01-25T02:13:31.901Z,12.07
2023-01-25T02:15:58.533Z,11.40
2023-01-25T02:18:25.345Z,12.27
2023-01-25T02:20:56.281Z,12.40
2023-01-25T02:23:32.924Z,12.57
2023-01-25T02:26:02.883Z,12.80
2023-01-25T02:28:34.663Z,12.30
2023-01-25T02:31:01.117Z,11.77
2023-01-25T02:33:28.111Z,12.27
2023-01-25T02:36:00.739Z,12.57
2023-01-25T02:38:32.794Z,12.80
2023-01-25T02:41:06.712Z,12.23
2023-01-25T02:43:35.665Z,12.03
2023-01-25T02:46:11.640Z,12.70
2023-01-25T02:48:38.146Z,12.53
2023-01-25T02:51:08.115Z,12.53
2023-01-25T02:53:34.791Z,12.70
2023-01-25T02:56:02.071Z,12.17
2023-01-25T02:58:29.996Z,12.97
2023-01-25T03:00:58.083Z,12.70
2023-01-25T03:03:25.647Z,11.63
2023-01-25T03:05:52.887Z,12.83
2023-01-25T03:08:19.367Z,12.53
2023-01-25T03:10:48.698Z,12.47
2023-01-25T03:13:15.884Z,11.93
2023-01-25T03:15:42.304Z,12.43
2023-01-25T03:18:08.863Z,11.13
2023-01-25T03:20:35.277Z,11.13
2023-01-25T03:23:02.214Z,10.10
2023-01-25T03:25:28.797Z,12.17
2023-01-25T03:28:06.437Z,11.20
2023-01-25T03:30:33.875Z,12.07
2023-01-25T03:33:00.415Z,11.67
2023-01-25T03:35:27.192Z,11.17
2023-01-25T03:37:53.908Z,10.53
2023-01-25T03:40:20.297Z,11.47
2023-01-25T03:42:49.851Z,11.30
2023-01-25T03:45:16.475Z,11.80
2023-01-25T03:47:44.651Z,11.93
2023-01-25T03:50:11.521Z,11.70
2023-01-25T03:53:26.587Z,11.57
2023-01-25T03:55:55.474Z,10.57
2023-01-25T03:58:22.212Z,10.87
2023-01-25T04:00:50.875Z,10.60
2023-01-25T04:03:19.061Z,9.47
2023-01-25T04:05:46.311Z,11.37
2023-01-25T04:08:12.833Z,11.33
2023-01-25T04:10:40.025Z,10.57
2023-01-25T04:13:07.463Z,10.90
2023-01-25T04:15:34.599Z,10.43
2023-01-25T04:18:08.037Z,10.77
2023-01-25T04:20:35.519Z,10.30
2023-01-25T04:23:02.023Z,11.37
2023-01-25T04:25:34.872Z,9.90
2023-01-25T04:28:01.653Z,10.73
2023-01-25T04:30:28.357Z,9.50
2023-01-25T04:32:56.909Z,10.47
2023-01-25T04:35:28.431Z,10.87
2023-01-25T04:37:56.627Z,10.90
2023-01-25T04:40:26.090Z,10.17
2023-01-25T04:42:52.601Z,11.33
2023-01-25T04:45:19.173Z,10.40
2023-01-25T04:47:45.759Z,10.00
2023-01-25T04:50:12.201Z,10.33
2023-01-25T04:52:38.666Z,10.40
2023-01-25T04:55:06.636Z,10.57
2023-01-25T04:57:38.722Z,10.73
2023-01-25T05:00:06.556Z,10.40
2023-01-25T05:02:33.227Z,10.70
2023-01-25T05:04:59.790Z,11.07
2023-01-25T05:07:27.110Z,10.70
2023-01-25T05:09:53.664Z,10.53
2023-01-25T05:12:23.636Z,10.03
2023-01-25T05:14:54.164Z,9.70
2023-01-25T05:17:21.143Z,10.90
2023-01-25T05:19:48.121Z,9.67
2023-01-25T05:22:20.067Z,10.77
2023-01-25T05:24:49.646Z,10.80
2023-01-25T05:27:18.811Z,11.17
2023-01-25T05:29:55.615Z,10.27
2023-01-25T05:32:28.262Z,10.47
2023-01-25T05:34:55.538Z,10.13
2023-01-25T05:37:22.547Z,9.83
2023-01-25T05:39:56.320Z,9.57
2023-01-25T05:42:23.788Z,8.87
2023-01-25T05:44:50.584Z,10.10
2023-01-25T05:47:19.600Z,9.33
2023-01-25T05:49:46.337Z,9.60
2023-01-25T05:52:20.333Z,9.47
2023-01-25T05:54:46.783Z,9.10
2023-01-25T05:57:15.007Z,9.00
2023-01-25T05:59:41.958Z,9.80
2023-01-25T06:02:10.559Z,9.00
2023-01-25T06:04:38.149Z,10.13
2023-01-25T06:07:05.117Z,8.90
2023-01-25T06:09:32.706Z,9.53
2023-01-25T06:11:59.135Z,9.43
2023-01-25T06:14:25.568Z,9.60
2023-01-25T06:16:52.454Z,9.43
2023-01-25T06:19:38.200Z,9.50
2023-01-25T06:22:30.920Z,9.53
2023-01-25T06:24:57.321Z,9.87
2023-01-25T06:27:23.719Z,9.50
2023-01-25T06:29:50.159Z,9.63
2023-01-25T06:32:16.599Z,9.97
2023-01-25T06:34:45.568Z,9.60
2023-01-25T06:37:19.505Z,10.17
2023-01-25T06:39:45.903Z,10.70
2023-01-25T06:42:12.294Z,9.60
2023-01-25T06:44:38.705Z,9.47
2023-01-25T06:47:05.129Z,10.87
2023-01-25T06:49:31.537Z,10.03
2023-01-25T06:52:00.458Z,10.63
2023-01-25T06:54:26.862Z,10.90
2023-01-25T06:56:53.277Z,10.40
2023-01-25T06:59:19.964Z,10.23
2023-01-25T07:01:46.395Z,10.87
2023-01-25T07:04:12.822Z,10.83
2023-01-25T07:06:44.430Z,11.07
2023-01-25T07:09:13.490Z,10.80
2023-01-25T07:11:39.941Z,10.47
2023-01-25T07:14:06.488Z,11.43
2023-01-25T07:16:36.329Z,10.83
2023-01-25T07:19:02.835Z,10.93
2023-01-25T07:21:29.324Z,10.23
2023-01-25T07:24:01.427Z,12.63
2023-01-25T07:26:28.947Z,10.10
2023-01-25T07:28:56.833Z,10.27
2023-01-25T07:31:23.618Z,10.37
2023-01-25T07:33:51.247Z,9.93
2023-01-25T07:36:18.288Z,9.10
2023-01-25T07:38:45.149Z,9.23
2023-01-25T07:41:12.300Z,9.13
2023-01-25T07:43:40.401Z,9.17
2023-01-25T07:46:11.403Z,9.13
2023-01-25T07:48:38.962Z,9.10
2023-01-25T07:51:21.796Z,8.50
2023-01-25T07:53:49.660Z,9.57
2023-01-25T07:56:16.672Z,9.33
2023-01-25T07:58:43.831Z,8.83
2023-01-25T08:01:12.257Z,9.00
2023-01-25T08:03:39.041Z,9.23
2023-01-25T08:06:06.315Z,9.20
2023-01-25T08:08:34.435Z,10.40
2023-01-25T08:11:06.449Z,15.03
2023-01-25T08:13:32.867Z,10.33
2023-01-25T08:15:59.931Z,10.47
2023-01-25T08:18:26.595Z,10.30
2023-01-25T08:20:52.996Z,10.00
2023-01-25T08:23:20.055Z,8.80
2023-01-25T08:25:46.687Z,8.90
2023-01-25T08:28:13.112Z,11.10
2023-01-25T08:30:51.974Z,8.87
2023-01-25T08:33:23.484Z,7.73
2023-01-25T08:35:55.036Z,7.33
2023-01-25T08:38:21.541Z,7.63
2023-01-25T08:40:47.957Z,6.60
2023-01-25T08:43:14.364Z,6.47
2023-01-25T08:45:40.732Z,7.03
2023-01-25T08:48:07.142Z,6.93
2023-01-25T08:50:34.310Z,6.73
2023-01-25T08:53:01.141Z,6.83
2023-01-25T08:55:27.591Z,6.93
2023-01-25T08:57:56.406Z,7.13
2023-01-25T09:00:22.953Z,6.47
2023-01-25T09:02:49.420Z,6.43
2023-01-25T09:05:16.016Z,6.53
2023-01-25T09:07:43.056Z,6.73
2023-01-25T09:10:10.833Z,5.90
2023-01-25T09:12:37.566Z,6.37
2023-01-25T09:15:04.776Z,6.57
2023-01-25T09:17:31.328Z,6.60
2023-01-25T09:19:57.780Z,7.00
2023-01-25T09:22:24.255Z,7.00
2023-01-25T09:24:53.216Z,7.60
2023-01-25T09:27:20.081Z,8.17
2023-01-25T09:30:01.001Z,8.53
2023-01-25T09:32:28.180Z,8.27
2023-01-25T09:34:54.792Z,9.17
2023-01-25T09:37:21.266Z,9.17
2023-01-25T09:39:47.747Z,9.50
2023-01-25T09:42:31.940Z,9.43
2023-01-25T09:45:26.904Z,9.70
2023-01-25T09:47:58.977Z,9.27
2023-01-25T09:50:53.037Z,9.63
2023-01-25T09:53:23.647Z,8.97
2023-01-25T09:55:53.330Z,9.30
2023-01-25T09:58:24.265Z,10.40
2023-01-25T10:00:59.499Z,10.67
2023-01-25T10:03:31.636Z,10.77
2023-01-25T10:06:01.192Z,10.23
2023-01-25T10:08:32.746Z,10.20
2023-01-25T10:11:05.643Z,9.63
2023-01-25T10:13:32.831Z,11.13
2023-01-25T10:16:05.197Z,11.23
2023-01-25T10:18:36.959Z,10.53
2023-01-25T10:21:10.556Z,10.93
2023-01-25T10:24:10.977Z,10.73
2023-01-25T10:26:42.618Z,10.80
2023-01-25T10:29:15.279Z,10.40
2023-01-25T10:31:46.104Z,9.70
2023-01-25T10:34:17.888Z,9.70
2023-01-25T10:36:47.600Z,10.37
2023-01-25T10:39:14.924Z,11.50
2023-01-25T10:41:47.505Z,10.00
2023-01-25T10:44:21.416Z,10.47
2023-01-25T10:46:53.187Z,10.60
2023-01-25T10:49:24.499Z,9.53
2023-01-25T10:51:50.948Z,10.53
2023-01-25T10:54:17.350Z,11.73
2023-01-25T10:56:45.892Z,11.00
2023-01-25T10:59:20.818Z,10.77
2023-01-25T11:01:47.704Z,11.27
2023-01-25T11:04:34.683Z,9.67
2023-01-25T11:07:02.166Z,10.13
2023-01-25T11:09:33.063Z,10.43
2023-01-25T11:12:01.365Z,10.40
2023-01-25T11:14:30.597Z,10.00
2023-01-25T11:16:58.377Z,10.13
2023-01-25T11:19:32.083Z,10.17
2023-01-25T11:22:00.193Z,10.17
2023-01-25T11:24:28.164Z,10.30
2023-01-25T11:27:13.845Z,10.27
2023-01-25T11:29:40.954Z,11.17
2023-01-25T11:32:19.643Z,11.37
2023-01-25T11:34:46.176Z,10.60
2023-01-25T11:37:45.125Z,10.67
2023-01-25T11:40:19.818Z,9.70
2023-01-25T11:42:59.300Z,10.47
2023-01-25T11:46:02.017Z,10.40
2023-01-25T11:48:52.900Z,11.10
2023-01-25T11:51:25.892Z,10.57
2023-01-25T11:54:05.923Z,10.30
2023-01-25T11:56:46.600Z,10.27
2023-01-25T11:59:26.556Z,9.73
2023-01-25T12:02:10.255Z,10.43
2023-01-25T12:04:56.613Z,9.40
2023-01-25T12:07:37.979Z,9.80
2023-01-25T12:10:19.657Z,10.33
2023-01-25T12:12:56.165Z,10.37
2023-01-25T12:15:49.968Z,10.80
2023-01-25T12:18:52.345Z,10.73
2023-01-25T12:21:31.847Z,11.03
2023-01-25T12:24:14.903Z,10.17
2023-01-25T12:26:49.347Z,11.23
2023-01-25T12:29:24.557Z,11.30
2023-01-25T12:31:58.306Z,11.67
2023-01-25T12:34:33.313Z,12.13
2023-01-25T12:37:10.701Z,11.77
2023-01-25T12:39:44.747Z,11.77
2023-01-25T12:42:16.730Z,11.37
2023-01-25T12:44:48.083Z,11.90
2023-01-25T12:47:21.702Z,11.63
2023-01-25T12:49:54.024Z,11.73
2023-01-25T12:52:24.049Z,11.23
2023-01-25T12:54:54.803Z,12.30
2023-01-25T12:57:28.939Z,11.87
2023-01-25T13:00:05.368Z,10.83
2023-01-25T13:02:52.993Z,12.23
2023-01-25T13:05:28.750Z,11.17
2023-01-25T13:08:03.250Z,12.00
2023-01-25T13:10:34.117Z,11.53
2023-01-25T13:13:03.191Z,12.70
2023-01-25T13:15:38.198Z,12.57
2023-01-25T13:18:40.230Z,12.27
2023-01-25T13:21:48.241Z,12.93
2023-01-25T13:24:20.391Z,12.60
2023-01-25T13:26:58.218Z,12.57
2023-01-25T13:29:55.597Z,12.17
2023-01-25T13:33:02.673Z,12.40
2023-01-25T13:35:40.153Z,11.80
2023-01-25T13:38:39.251Z,11.93
2023-01-25T13:41:14.113Z,12.63
2023-01-25T13:43:43.648Z,11.70
2023-01-25T13:46:14.639Z,12.50
2023-01-25T13:48:53.769Z,11.93
2023-01-25T13:51:21.153Z,11.83
2023-01-25T13:53:58.528Z,12.53
2023-01-25T13:56:29.174Z,11.93
2023-01-25T13:58:59.861Z,10.83
2023-01-25T14:01:32.149Z,11.80
2023-01-25T14:04:01.662Z,11.73
2023-01-25T14:06:30.124Z,12.37
2023-01-25T14:09:00.641Z,12.27
2023-01-25T14:11:30.267Z,13.00
2023-01-25T14:13:58.695Z,12.83
2023-01-25T14:16:26.702Z,13.20
2023-01-25T14:18:53.479Z,13.50
2023-01-25T14:21:21.435Z,13.00
2023-01-25T14:23:48.785Z,14.03
2023-01-25T14:26:21.833Z,12.70
2023-01-25T14:28:59.541Z,13.50
2023-01-25T14:31:34.666Z,13.57
2023-01-25T14:34:03.977Z,13.63
2023-01-25T14:36:33.497Z,12.60
2023-01-25T14:39:00.154Z,13.00
2023-01-25T14:41:29.521Z,14.33
2023-01-25T14:43:58.871Z,14.17
2023-01-25T14:46:28.194Z,14.47
2023-01-25T14:49:24.683Z,14.73
2023-01-25T14:51:56.328Z,16.00
2023-01-25T14:54:25.407Z,15.27
2023-01-25T14:56:54.771Z,15.83
2023-01-25T14:59:29.209Z,15.37
2023-01-25T15:01:58.844Z,15.60
2023-01-25T15:04:25.885Z,15.93
2023-01-25T15:06:54.050Z,16.10
2023-01-25T15:09:35.930Z,18.23
2023-01-25T15:12:22.789Z,16.10
2023-01-25T15:14:54.627Z,15.50
2023-01-25T15:17:44.890Z,15.10
2023-01-25T15:20:32.855Z,15.63
2023-01-25T15:23:02.565Z,14.33
2023-01-25T15:25:31.864Z,14.97
2023-01-25T15:27:58.331Z,13.33
2023-01-25T15:30:25.502Z,12.90
2023-01-25T15:32:52.059Z,12.17
2023-01-25T15:35:20.657Z,12.30
2023-01-25T15:37:49.389Z,12.53
2023-01-25T15:40:16.829Z,12.37
2023-01-25T15:42:43.647Z,11.97
2023-01-25T15:45:11.066Z,12.27
2023-01-25T15:47:39.104Z,11.93
2023-01-25T15:50:06.784Z,12.57
2023-01-25T15:52:33.266Z,12.43
2023-01-25T15:55:01.982Z,11.67
2023-01-25T15:57:32.224Z,11.47
2023-01-25T16:00:01.840Z,12.83
2023-01-25T16:02:34.498Z,11.93
2023-01-25T16:05:02.205Z,11.83
2023-01-25T16:07:38.171Z,12.10
2023-01-25T16:10:05.423Z,11.07
2023-01-25T16:12:33.705Z,12.43
2023-01-25T16:15:00.153Z,11.87
2023-01-25T16:17:29.729Z,11.43
2023-01-25T16:19:56.134Z,11.50
2023-01-25T16:22:23.261Z,11.57
2023-01-25T16:24:49.719Z,10.43
2023-01-25T16:27:22.066Z,10.73
2023-01-25T16:29:48.489Z,10.70
2023-01-25T16:32:14.981Z,11.37
2023-01-25T16:34:41.434Z,11.40
2023-01-25T16:37:14.064Z,10.20
2023-01-25T16:39:41.310Z,10.53
2023-01-25T16:42:09.191Z,10.57
2023-01-25T16:44:36.032Z,9.50
2023-01-25T16:47:03.944Z,10.80
2023-01-25T16:49:34.073Z,11.60
2023-01-25T16:52:03.032Z,11.17
2023-01-25T16:54:29.885Z,11.43
2023-01-25T16:56:58.057Z,12.17
2023-01-25T16:59:25.389Z,11.83
2023-01-25T17:01:52.347Z,12.27
2023-01-25T17:04:24.327Z,12.63
2023-01-25T17:06:52.278Z,12.93
2023-01-25T17:09:24.215Z,14.37
2023-01-25T17:11:51.590Z,13.57
2023-01-25T17:14:19.554Z,14.07
2023-01-25T17:16:47.567Z,11.80
2023-01-25T17:19:16.196Z,13.00
2023-01-25T17:21:43.249Z,11.87
2023-01-25T17:24:12.565Z,12.23
2023-01-25T17:26:40.044Z,12.67
2023-01-25T17:29:06.895Z,13.30
2023-01-25T17:31:35.529Z,11.83
2023-01-25T17:34:04.714Z,11.53
2023-01-25T17:36:31.396Z,11.47
2023-01-25T17:39:02.333Z,12.33
2023-01-25T17:41:29.754Z,11.43
2023-01-25T17:43:57.008Z,12.50
2023-01-25T17:46:26.856Z,12.20
2023-01-25T17:48:55.501Z,13.07
2023-01-25T17:51:24.802Z,12.53
2023-01-25T17:53:52.307Z,12.53
2023-01-25T17:56:19.199Z,12.50
2023-01-25T17:58:46.551Z,12.93
2023-01-25T18:01:15.937Z,13.57
2023-01-25T18:03:43.784Z,13.67
2023-01-25T18:06:16.297Z,13.47
2023-01-25T18:08:45.386Z,14.00
2023-01-25T18:11:16.568Z,14.40
2023-01-25T18:13:45.076Z,14.43
2023-01-25T18:16:12.972Z,14.30
2023-01-25T18:18:41.302Z,13.63
2023-01-25T18:21:10.769Z,14.90
2023-01-25T18:23:41.470Z,14.63
2023-01-25T18:26:17.586Z,13.70
2023-01-25T18:28:44.324Z,13.90
2023-01-25T18:31:15.093Z,15.03
2023-01-25T18:33:42.016Z,15.70
2023-01-25T18:36:10.663Z,15.53
2023-01-25T18:38:38.041Z,15.10
2023-01-25T18:41:04.790Z,15.83
2023-01-25T18:43:31.417Z,14.80
2023-01-25T18:45:58.740Z,16.10
2023-01-25T18:48:29.689Z,13.90
2023-01-25T18:50:57.371Z,14.60
2023-01-25T18:53:25.231Z,14.23
2023-01-25T18:55:59.847Z,13.63
2023-01-25T18:58:26.251Z,13.70
2023-01-25T19:01:01.691Z,14.47
2023-01-25T19:03:29.728Z,14.00
2023-01-25T19:05:56.841Z,14.33
2023-01-25T19:08:24.552Z,13.90
2023-01-25T19:10:51.584Z,14.37
2023-01-25T19:13:18.739Z,14.27
2023-01-25T19:15:45.224Z,14.00
2023-01-25T19:18:11.637Z,14.27
2023-01-25T19:20:38.879Z,14.10
2023-01-25T19:23:05.304Z,14.30
2023-01-25T19:25:34.145Z,14.57
2023-01-25T19:28:00.719Z,14.13
2023-01-25T19:30:29.492Z,13.53
2023-01-25T19:32:57.731Z,15.53
2023-01-25T19:35:24.426Z,14.67
2023-01-25T19:37:50.836Z,14.80
2023-01-25T19:40:18.206Z,15.23
2023-01-25T19:42:44.696Z,14.77
2023-01-25T19:45:11.935Z,14.77
2023-01-25T19:47:39.154Z,15.67
2023-01-25T19:50:06.837Z,15.03
2023-01-25T19:52:33.535Z,14.80
2023-01-25T19:55:00.040Z,16.97
2023-01-25T19:57:27.051Z,14.97
2023-01-25T19:59:53.474Z,15.50
2023-01-25T20:02:20.103Z,16.03
2023-01-25T20:04:47.384Z,20.83
2023-01-25T20:07:13.939Z,15.00
2023-01-25T20:09:40.341Z,15.10
2023-01-25T20:12:07.623Z,14.83
2023-01-25T20:14:34.301Z,14.77
2023-01-25T20:17:00.870Z,15.30
2023-01-25T20:19:27.508Z,15.33
2023-01-25T20:21:54.593Z,14.83
2023-01-25T20:24:21.815Z,15.37
2023-01-25T20:26:48.605Z,14.47
2023-01-25T20:29:15.035Z,14.97
2023-01-25T20:31:43.362Z,15.63
2023-01-25T20:34:12.333Z,14.43
2023-01-25T20:36:38.934Z,15.73
2023-01-25T20:39:07.237Z,16.00
2023-01-25T20:41:36.555Z,16.07
2023-01-25T20:44:08.954Z,16.30
2023-01-25T20:46:37.286Z,14.57
2023-01-25T20:49:05.641Z,16.53
2023-01-25T20:51:33.157Z,14.23
2023-01-25T20:53:59.782Z,14.87
2023-01-25T20:56:27.491Z,14.17
2023-01-25T20:58:54.304Z,14.10
2023-01-25T21:01:22.791Z,13.57
2023-01-25T21:03:51.514Z,13.57
2023-01-25T21:06:20.726Z,14.43
2023-01-25T21:08:47.532Z,13.37
2023-01-25T21:11:14.125Z,13.50
2023-01-25T21:13:42.253Z,13.33
2023-01-25T21:16:11.246Z,13.20
2023-01-25T21:18:39.346Z,12.60
2023-01-25T21:21:08.155Z,12.80
2023-01-25T21:23:36.889Z,13.40
2023-01-25T21:26:04.942Z,13.67
2023-01-25T21:28:31.783Z,13.57
2023-01-25T21:31:07.267Z,12.97
2023-01-25T21:33:34.665Z,13.10
2023-01-25T21:36:01.440Z,14.57
2023-01-25T21:38:27.854Z,13.47
2023-01-25T21:40:59.804Z,15.77
2023-01-25T21:43:28.407Z,13.60
2023-01-25T21:46:27.639Z,13.67
2023-01-25T21:49:22.916Z,13.67
2023-01-25T21:51:51.347Z,13.10
2023-01-25T21:54:19.372Z,13.50
2023-01-25T21:56:46.928Z,12.87
2023-01-25T21:59:13.922Z,14.30
2023-01-25T22:01:42.289Z,14.40
2023-01-25T22:04:09.966Z,14.80
2023-01-25T22:06:36.909Z,13.90
2023-01-25T22:09:04.219Z,13.23
2023-01-25T22:11:31.256Z,14.20
2023-01-25T22:13:58.443Z,13.83
2023-01-25T22:16:25.452Z,13.27
2023-01-25T22:18:51.946Z,14.50
2023-01-25T22:21:21.357Z,16.53
2023-01-25T22:23:48.489Z,13.67
2023-01-25T22:26:17.138Z,14.33
2023-01-25T22:28:45.648Z,14.57
2023-01-25T22:31:12.754Z,14.27
2023-01-25T22:33:39.515Z,14.23
2023-01-25T22:36:06.759Z,13.50
2023-01-25T22:38:34.029Z,13.03
2023-01-25T22:41:04.665Z,13.50
2023-01-25T22:43:31.295Z,12.97
2023-01-25T22:45:57.955Z,13.03
2023-01-25T22:48:24.398Z,12.53
2023-01-25T22:50:50.859Z,12.93
2023-01-25T22:53:17.387Z,13.07
2023-01-25T22:55:45.091Z,12.70
2023-01-25T22:58:11.968Z,14.07
2023-01-25T23:00:38.490Z,13.60
2023-01-25T23:03:04.909Z,13.53
2023-01-25T23:05:31.316Z,15.83
2023-01-25T23:07:58.776Z,14.83
2023-01-25T23:10:25.238Z,13.93
2023-01-25T23:12:53.379Z,14.57
2023-01-25T23:15:19.829Z,14.73
2023-01-25T23:18:04.229Z,14.47
2023-01-25T23:20:30.687Z,15.67
2023-01-25T23:22:57.097Z,14.63
2023-01-25T23:25:23.557Z,14.90
2023-01-25T23:27:50.276Z,14.43
2023-01-25T23:30:17.791Z,12.83
2023-01-25T23:32:45.387Z,12.83
2023-01-25T23:35:12.424Z,12.50
2023-01-25T23:37:38.798Z,12.90
2023-01-25T23:40:08.262Z,12.70
2023-01-25T23:42:34.886Z,12.40
2023-01-25T23:45:01.281Z,14.00
2023-01-25T23:47:31.017Z,11.90
2023-01-25T23:49:57.684Z,11.43
2023-01-25T23:52:24.161Z,11.33
2023-01-25T23:54:50.530Z,11.00
2023-01-25T23:57:16.929Z,12.17
2023-01-25T23:59:43.355Z,11.80
